createdAt,value
2022-10-13T00:00:58.070Z,8.1
2022-10-13T00:02:00.709Z,8.1
2022-10-13T00:03:04.164Z,8
2022-10-13T00:04:07.316Z,8.1
2022-10-13T00:05:10.182Z,8
2022-10-13T00:06:12.915Z,8
2022-10-13T00:07:15.976Z,8
2022-10-13T00:08:18.760Z,8
2022-10-13T00:09:22.351Z,8
2022-10-13T00:10:26.504Z,8
2022-10-13T00:11:29.569Z,8
2022-10-13T00:12:32.832Z,8
2022-10-13T00:13:36.744Z,7.9
2022-10-13T00:14:39.617Z,7.9
2022-10-13T00:15:42.427Z,7.9
2022-10-13T00:16:45.142Z,7.8
2022-10-13T00:17:47.969Z,7.8
2022-10-13T00:18:51.051Z,7.8
2022-10-13T00:19:54.392Z,7.8
2022-10-13T00:20:57.105Z,7.8
2022-10-13T00:21:59.826Z,7.7
2022-10-13T00:23:02.260Z,7.7
2022-10-13T00:24:05.056Z,7.7
2022-10-13T00:25:08.578Z,7.7
2022-10-13T00:26:12.047Z,7.7
2022-10-13T00:27:15.224Z,7.7
2022-10-13T00:28:18.544Z,7.7
2022-10-13T00:29:21.770Z,7.7
2022-10-13T00:30:24.561Z,7.8
2022-10-13T00:31:27.648Z,7.7
2022-10-13T00:32:31.140Z,7.7
2022-10-13T00:33:34.584Z,7.7
2022-10-13T00:34:37.186Z,7.7
2022-10-13T00:35:40.358Z,7.8
2022-10-13T00:36:43.245Z,7.8
2022-10-13T00:37:45.952Z,7.8
2022-10-13T00:38:48.800Z,7.8
2022-10-13T00:39:52.246Z,7.8
2022-10-13T00:40:55.852Z,7.8
2022-10-13T00:41:59.730Z,7.8
2022-10-13T00:43:02.944Z,7.8
2022-10-13T00:44:05.392Z,7.8
2022-10-13T00:45:08.184Z,7.8
2022-10-13T00:46:11.563Z,7.8
2022-10-13T00:47:15.309Z,7.8
2022-10-13T00:48:18.471Z,7.8
2022-10-13T00:49:21.558Z,7.8
2022-10-13T00:50:24.517Z,7.9
2022-10-13T00:51:28.216Z,7.9
2022-10-13T00:52:31.165Z,7.9
2022-10-13T00:53:34.231Z,7.9
2022-10-13T00:54:37.663Z,7.9
2022-10-13T00:55:40.347Z,7.9
2022-10-13T00:56:43.910Z,7.9
2022-10-13T00:57:48.020Z,7.9
2022-10-13T00:58:50.818Z,7.9
2022-10-13T00:59:53.808Z,7.9
2022-10-13T01:00:57.159Z,7.9
2022-10-13T01:01:59.718Z,7.9
2022-10-13T01:03:02.310Z,7.9
2022-10-13T01:04:05.481Z,7.9
2022-10-13T01:05:07.803Z,7.9
2022-10-13T01:06:10.229Z,7.8
2022-10-13T01:07:13.320Z,7.8
2022-10-13T01:08:16.211Z,7.8
2022-10-13T01:09:19.271Z,7.8
2022-10-13T01:10:21.608Z,7.8
2022-10-13T01:11:23.769Z,7.8
2022-10-13T01:12:27.325Z,7.8
2022-10-13T01:13:31.130Z,7.8
2022-10-13T01:14:34.317Z,7.8
2022-10-13T01:15:37.573Z,7.8
2022-10-13T01:16:40.997Z,7.8
2022-10-13T01:17:44.460Z,7.8
2022-10-13T01:18:46.890Z,7.8
2022-10-13T01:19:49.763Z,7.8
2022-10-13T01:20:53.323Z,7.9
2022-10-13T01:21:56.696Z,7.9
2022-10-13T01:22:59.676Z,7.8
2022-10-13T01:24:02.765Z,7.8
2022-10-13T01:25:05.845Z,7.9
2022-10-13T01:26:08.832Z,7.9
2022-10-13T01:27:11.612Z,7.9
2022-10-13T01:28:15.709Z,7.9
2022-10-13T01:29:19.269Z,7.9
2022-10-13T01:30:22.132Z,7.9
2022-10-13T01:31:25.939Z,7.9
2022-10-13T01:32:29.668Z,7.9
2022-10-13T01:33:32.473Z,7.9
2022-10-13T01:34:36.273Z,7.8
2022-10-13T01:35:39.421Z,7.9
2022-10-13T01:36:42.916Z,7.9
2022-10-13T01:37:45.802Z,7.9
2022-10-13T01:38:48.398Z,7.9
2022-10-13T01:39:50.698Z,7.9
2022-10-13T01:40:54.042Z,7.9
2022-10-13T01:41:57.218Z,7.9
2022-10-13T01:42:59.731Z,7.9
2022-10-13T01:44:03.200Z,7.9
2022-10-13T01:45:07.344Z,7.9
2022-10-13T01:46:09.942Z,7.8
2022-10-13T01:47:12.468Z,7.9
2022-10-13T01:48:15.970Z,7.8
2022-10-13T01:49:18.875Z,7.8
2022-10-13T01:50:22.052Z,7.8
2022-10-13T01:51:25.475Z,7.8
2022-10-13T01:52:28.580Z,7.8
2022-10-13T01:53:31.456Z,7.8
2022-10-13T01:54:34.805Z,7.8
2022-10-13T01:55:38.051Z,7.9
2022-10-13T01:56:41.061Z,7.9
2022-10-13T01:57:43.847Z,7.9
2022-10-13T01:58:46.359Z,7.9
2022-10-13T01:59:49.895Z,7.9
2022-10-13T02:00:53.913Z,7.9
2022-10-13T02:01:57.164Z,7.9
2022-10-13T02:03:00.242Z,7.9
2022-10-13T02:04:03.867Z,7.9
2022-10-13T02:05:06.753Z,7.8
2022-10-13T02:06:10.203Z,7.8
2022-10-13T02:07:13.656Z,7.9
2022-10-13T02:08:16.727Z,7.9
2022-10-13T02:09:20.171Z,7.9
2022-10-13T02:10:23.233Z,7.8
2022-10-13T02:11:26.015Z,7.8
2022-10-13T02:12:29.410Z,7.8
2022-10-13T02:13:32.523Z,7.8
2022-10-13T02:14:35.769Z,7.8
2022-10-13T02:15:39.396Z,7.8
2022-10-13T02:16:43.794Z,7.8
2022-10-13T02:17:46.863Z,7.8
2022-10-13T02:18:49.722Z,7.9
2022-10-13T02:19:52.793Z,7.9
2022-10-13T02:20:56.805Z,7.9
2022-10-13T02:21:59.588Z,7.9
2022-10-13T02:23:02.695Z,7.9
2022-10-13T02:24:05.764Z,7.9
2022-10-13T02:25:08.562Z,7.9
2022-10-13T02:26:11.909Z,7.8
2022-10-13T02:27:14.133Z,7.9
2022-10-13T02:28:17.825Z,7.9
2022-10-13T02:29:20.901Z,7.9
2022-10-13T02:30:24.052Z,7.9
2022-10-13T02:31:27.803Z,7.9
2022-10-13T02:32:31.267Z,7.9
2022-10-13T02:33:34.977Z,7.9
2022-10-13T02:34:37.927Z,7.9
2022-10-13T02:35:40.556Z,7.9
2022-10-13T02:36:43.721Z,7.9
2022-10-13T02:37:46.698Z,7.9
2022-10-13T02:38:49.515Z,7.9
2022-10-13T02:39:52.506Z,8
2022-10-13T02:40:55.224Z,8
2022-10-13T02:41:58.112Z,8
2022-10-13T02:43:00.939Z,8
2022-10-13T02:44:03.386Z,8
2022-10-13T02:45:05.900Z,8.1
2022-10-13T02:46:08.706Z,8.1
2022-10-13T02:47:11.969Z,8.1
2022-10-13T02:48:15.443Z,8
2022-10-13T02:49:18.337Z,8.1
2022-10-13T02:50:21.469Z,8
2022-10-13T02:51:24.463Z,8
2022-10-13T02:52:27.204Z,8
2022-10-13T02:53:30.193Z,8
2022-10-13T02:54:32.985Z,8
2022-10-13T02:55:36.049Z,7.9
2022-10-13T02:56:39.139Z,7.9
2022-10-13T02:57:41.832Z,8
2022-10-13T02:58:44.433Z,8
2022-10-13T02:59:47.320Z,8
2022-10-13T03:00:50.105Z,8
2022-10-13T03:01:52.918Z,8
2022-10-13T03:02:56.508Z,7.9
2022-10-13T03:04:00.284Z,7.9
2022-10-13T03:05:02.878Z,7.9
2022-10-13T03:06:06.224Z,7.9
2022-10-13T03:07:09.022Z,7.9
2022-10-13T03:08:11.533Z,7.9
2022-10-13T03:09:14.995Z,7.9
2022-10-13T03:10:18.684Z,7.8
2022-10-13T03:11:20.913Z,7.9
2022-10-13T03:12:24.394Z,7.8
2022-10-13T03:13:27.259Z,7.8
2022-10-13T03:14:30.058Z,7.8
2022-10-13T03:15:33.207Z,7.8
2022-10-13T03:16:36.339Z,7.8
2022-10-13T03:17:39.506Z,7.8
2022-10-13T03:18:43.328Z,7.8
2022-10-13T03:19:46.607Z,7.8
2022-10-13T03:20:49.195Z,7.8
2022-10-13T03:21:52.269Z,7.8
2022-10-13T03:22:55.806Z,7.8
2022-10-13T03:23:58.037Z,7.8
2022-10-13T03:25:01.000Z,7.8
2022-10-13T03:26:03.991Z,7.7
2022-10-13T03:27:07.056Z,7.7
2022-10-13T03:28:10.216Z,7.7
2022-10-13T03:29:12.731Z,7.7
2022-10-13T03:30:16.230Z,7.7
2022-10-13T03:31:19.371Z,7.7
2022-10-13T03:32:24.157Z,7.7
2022-10-13T03:33:27.222Z,7.7
2022-10-13T03:34:30.464Z,7.6
2022-10-13T03:35:34.327Z,7.6
2022-10-13T03:36:37.466Z,7.6
2022-10-13T03:37:40.371Z,7.6
2022-10-13T03:38:43.747Z,7.6
2022-10-13T03:39:46.340Z,7.6
2022-10-13T03:40:48.782Z,7.6
2022-10-13T03:41:52.393Z,7.6
2022-10-13T03:42:55.644Z,7.6
2022-10-13T03:43:58.544Z,7.5
2022-10-13T03:45:01.134Z,7.5
2022-10-13T03:46:03.567Z,7.5
2022-10-13T03:47:06.358Z,7.5
2022-10-13T03:48:09.053Z,7.5
2022-10-13T03:49:12.471Z,7.5
2022-10-13T03:50:15.993Z,7.4
2022-10-13T03:51:20.003Z,7.4
2022-10-13T03:52:23.692Z,7.4
2022-10-13T03:53:26.557Z,7.5
2022-10-13T03:54:28.159Z,7.5
2022-10-13T03:55:30.750Z,7.4
2022-10-13T03:56:33.268Z,7.5
2022-10-13T03:57:36.064Z,7.4
2022-10-13T03:58:38.865Z,7.4
2022-10-13T03:59:41.528Z,7.4
2022-10-13T04:00:44.891Z,7.4
2022-10-13T04:01:48.052Z,7.4
2022-10-13T04:02:51.499Z,7.4
2022-10-13T04:03:54.577Z,7.4
2022-10-13T04:04:58.087Z,7.3
2022-10-13T04:06:01.284Z,7.3
2022-10-13T04:07:05.395Z,7.3
2022-10-13T04:08:08.466Z,7.3
2022-10-13T04:09:11.551Z,7.3
2022-10-13T04:10:14.975Z,7.3
2022-10-13T04:11:18.136Z,7.3
2022-10-13T04:12:23.986Z,7.3
2022-10-13T04:13:27.786Z,7.2
2022-10-13T04:14:30.651Z,7.3
2022-10-13T04:15:33.714Z,7.2
2022-10-13T04:16:36.444Z,7.3
2022-10-13T04:17:39.883Z,7.2
2022-10-13T04:18:46.297Z,7.2
2022-10-13T04:19:48.973Z,7.3
2022-10-13T04:20:51.970Z,7.3
2022-10-13T04:21:55.620Z,7.2
2022-10-13T04:22:59.565Z,7.2
2022-10-13T04:24:02.778Z,7.2
2022-10-13T04:25:05.277Z,7.2
2022-10-13T04:26:07.784Z,7.2
2022-10-13T04:27:10.911Z,7.2
2022-10-13T04:28:14.548Z,7.2
2022-10-13T04:29:18.116Z,7.2
2022-10-13T04:30:21.008Z,7.2
2022-10-13T04:31:24.086Z,7.2
2022-10-13T04:32:26.669Z,7.1
2022-10-13T04:33:29.791Z,7.2
2022-10-13T04:34:33.252Z,7.1
2022-10-13T04:35:36.700Z,7.1
2022-10-13T04:36:39.413Z,7.1
2022-10-13T04:37:47.155Z,7.1
2022-10-13T04:38:51.132Z,7.1
2022-10-13T04:39:54.859Z,7.1
2022-10-13T04:40:57.977Z,7.1
2022-10-13T04:42:00.777Z,7
2022-10-13T04:43:04.151Z,7.1
2022-10-13T04:44:07.327Z,7
2022-10-13T04:45:10.029Z,7.1
2022-10-13T04:46:13.127Z,7.1
2022-10-13T04:47:15.646Z,7
2022-10-13T04:48:17.601Z,7
2022-10-13T04:49:20.119Z,7
2022-10-13T04:50:23.866Z,7
2022-10-13T04:51:27.138Z,7.1
2022-10-13T04:52:30.245Z,7.1
2022-10-13T04:53:33.075Z,7.1
2022-10-13T04:54:36.807Z,7.1
2022-10-13T04:55:39.524Z,7.1
2022-10-13T04:56:42.330Z,7.1
2022-10-13T04:57:45.680Z,7.1
2022-10-13T04:58:48.834Z,7.1
2022-10-13T04:59:51.571Z,7
2022-10-13T05:00:54.775Z,7.1
2022-10-13T05:01:57.987Z,7
2022-10-13T05:03:00.880Z,7
2022-10-13T05:04:04.045Z,7
2022-10-13T05:05:06.945Z,7
2022-10-13T05:06:10.118Z,7
2022-10-13T05:07:20.159Z,7
2022-10-13T05:08:22.896Z,7
2022-10-13T05:09:26.058Z,6.9
2022-10-13T05:10:35.758Z,6.9
2022-10-13T05:11:38.621Z,6.9
2022-10-13T05:12:41.502Z,6.9
2022-10-13T05:13:43.726Z,7
2022-10-13T05:14:46.827Z,7
2022-10-13T05:15:50.552Z,6.9
2022-10-13T05:16:54.063Z,7
2022-10-13T05:17:57.411Z,7
2022-10-13T05:19:00.620Z,7
2022-10-13T05:20:02.873Z,7
2022-10-13T05:21:05.830Z,7
2022-10-13T05:22:09.008Z,7
2022-10-13T05:23:11.917Z,7
2022-10-13T05:24:14.800Z,7
2022-10-13T05:25:18.555Z,7
2022-10-13T05:26:22.705Z,7
2022-10-13T05:27:25.857Z,7
2022-10-13T05:28:29.365Z,7
2022-10-13T05:29:32.347Z,7
2022-10-13T05:30:35.738Z,7
2022-10-13T05:31:39.200Z,7
2022-10-13T05:32:42.012Z,7
2022-10-13T05:33:45.093Z,7
2022-10-13T05:34:47.968Z,7.1
2022-10-13T05:35:51.167Z,7.1
2022-10-13T05:36:54.601Z,7.1
2022-10-13T05:37:57.405Z,7.1
2022-10-13T05:39:00.491Z,7.1
2022-10-13T05:40:03.908Z,7.1
2022-10-13T05:41:07.366Z,7.1
2022-10-13T05:42:10.856Z,7.1
2022-10-13T05:43:13.364Z,7.1
2022-10-13T05:44:15.679Z,7.1
2022-10-13T05:45:19.066Z,7.1
2022-10-13T05:46:22.167Z,7.1
2022-10-13T05:47:25.260Z,7
2022-10-13T05:48:28.343Z,7.1
2022-10-13T05:49:31.295Z,7.1
2022-10-13T05:50:34.639Z,7.1
2022-10-13T05:51:37.355Z,7.1
2022-10-13T05:52:40.434Z,7.1
2022-10-13T05:53:58.322Z,7.2
2022-10-13T05:55:01.589Z,7.2
2022-10-13T05:56:04.658Z,7.2
2022-10-13T05:57:08.303Z,7.2
2022-10-13T05:58:11.801Z,7.2
2022-10-13T05:59:14.738Z,7.2
2022-10-13T06:00:18.001Z,7.2
2022-10-13T06:01:20.808Z,7.2
2022-10-13T06:02:24.432Z,7.2
2022-10-13T06:03:27.422Z,7.2
2022-10-13T06:04:30.854Z,7.2
2022-10-13T06:05:33.943Z,7.3
2022-10-13T06:06:36.734Z,7.2
2022-10-13T06:07:40.247Z,7.3
2022-10-13T06:08:43.392Z,7.3
2022-10-13T06:09:46.587Z,7.3
2022-10-13T06:10:50.027Z,7.3
2022-10-13T06:11:53.098Z,7.3
2022-10-13T06:12:56.620Z,7.3
2022-10-13T06:14:00.097Z,7.3
2022-10-13T06:15:02.131Z,7.3
2022-10-13T06:16:05.743Z,7.3
2022-10-13T06:17:08.522Z,7.3
2022-10-13T06:18:11.044Z,7.4
2022-10-13T06:19:14.186Z,7.4
2022-10-13T06:20:17.328Z,7.5
2022-10-13T06:21:20.742Z,7.5
2022-10-13T06:22:24.659Z,7.4
2022-10-13T06:23:27.367Z,7.4
2022-10-13T06:24:30.435Z,7.5
2022-10-13T06:25:33.306Z,7.4
2022-10-13T06:26:36.746Z,7.5
2022-10-13T06:27:40.406Z,7.5
2022-10-13T06:29:00.324Z,7.5
2022-10-13T06:30:04.231Z,7.5
2022-10-13T06:31:07.204Z,7.5
2022-10-13T06:32:10.631Z,7.5
2022-10-13T06:33:13.705Z,7.6
2022-10-13T06:34:16.572Z,7.6
2022-10-13T06:35:19.475Z,7.6
2022-10-13T06:36:22.190Z,7.6
2022-10-13T06:37:29.382Z,7.7
2022-10-13T06:38:32.525Z,7.7
2022-10-13T06:39:35.991Z,7.8
2022-10-13T06:40:38.983Z,7.8
2022-10-13T06:41:41.845Z,7.8
2022-10-13T06:42:44.453Z,7.8
2022-10-13T06:43:48.015Z,7.8
2022-10-13T06:44:51.577Z,7.8
2022-10-13T06:45:55.411Z,7.8
2022-10-13T06:46:58.091Z,7.9
2022-10-13T06:48:01.443Z,7.9
2022-10-13T06:49:04.567Z,7.9
2022-10-13T06:50:07.624Z,7.9
2022-10-13T06:51:10.345Z,7.9
2022-10-13T06:52:13.271Z,7.9
2022-10-13T06:53:16.731Z,7.9
2022-10-13T06:54:20.534Z,8
2022-10-13T06:55:23.682Z,8.1
2022-10-13T06:56:27.091Z,8.1
2022-10-13T06:57:29.892Z,8.1
2022-10-13T06:58:32.965Z,8.1
2022-10-13T06:59:35.594Z,8.2
2022-10-13T07:00:39.272Z,8.2
2022-10-13T07:01:43.560Z,8.3
2022-10-13T07:02:46.983Z,8.3
2022-10-13T07:03:50.159Z,8.3
2022-10-13T07:04:53.303Z,8.4
2022-10-13T07:05:56.765Z,8.4
2022-10-13T07:07:00.195Z,8.5
2022-10-13T07:08:02.970Z,8.5
2022-10-13T07:09:06.116Z,8.6
2022-10-13T07:10:08.903Z,8.6
2022-10-13T07:11:17.795Z,8.7
2022-10-13T07:12:22.941Z,8.7
2022-10-13T07:13:26.073Z,8.7
2022-10-13T07:14:29.672Z,8.8
2022-10-13T07:15:32.828Z,8.8
2022-10-13T07:16:35.897Z,8.9
2022-10-13T07:17:39.377Z,8.9
2022-10-13T07:18:42.444Z,8.9
2022-10-13T07:19:44.966Z,9
2022-10-13T07:20:48.110Z,9
2022-10-13T07:21:51.295Z,9
2022-10-13T07:22:54.291Z,9.1
2022-10-13T07:23:57.707Z,9.1
2022-10-13T07:25:01.171Z,9.2
2022-10-13T07:26:04.033Z,9.2
2022-10-13T07:27:09.263Z,9.2
2022-10-13T07:28:12.293Z,9.2
2022-10-13T07:29:14.755Z,9.2
2022-10-13T07:30:17.835Z,9.3
2022-10-13T07:31:21.326Z,9.3
2022-10-13T07:32:24.499Z,9.4
2022-10-13T07:33:28.294Z,9.4
2022-10-13T07:34:31.357Z,9.4
2022-10-13T07:35:34.950Z,9.4
2022-10-13T07:36:37.883Z,9.4
2022-10-13T07:37:40.607Z,9.4
2022-10-13T07:38:43.549Z,9.4
2022-10-13T07:39:46.910Z,9.4
2022-10-13T07:40:49.701Z,9.4
2022-10-13T07:41:53.099Z,9.5
2022-10-13T07:42:56.200Z,9.5
2022-10-13T07:43:59.444Z,9.6
2022-10-13T07:45:02.628Z,9.6
2022-10-13T07:46:06.063Z,9.6
2022-10-13T07:47:09.083Z,9.6
2022-10-13T07:48:12.625Z,9.7
2022-10-13T07:49:17.524Z,9.7
2022-10-13T07:50:21.356Z,9.7
2022-10-13T07:51:24.535Z,9.7
2022-10-13T07:52:27.879Z,9.8
2022-10-13T07:53:31.050Z,9.7
2022-10-13T07:54:33.578Z,9.7
2022-10-13T07:55:37.110Z,9.7
2022-10-13T07:56:39.988Z,9.7
2022-10-13T07:57:43.159Z,9.8
2022-10-13T07:58:45.950Z,9.8
2022-10-13T07:59:49.947Z,9.8
2022-10-13T08:00:52.346Z,9.9
2022-10-13T08:01:55.778Z,9.8
2022-10-13T08:02:59.236Z,9.9
2022-10-13T08:04:03.447Z,9.9
2022-10-13T08:05:06.960Z,9.9
2022-10-13T08:06:09.915Z,9.9
2022-10-13T08:07:13.176Z,10
2022-10-13T08:08:16.995Z,10
2022-10-13T08:09:19.708Z,10
2022-10-13T08:10:22.602Z,10.1
2022-10-13T08:11:25.770Z,10.1
2022-10-13T08:12:28.941Z,10.2
2022-10-13T08:13:31.725Z,10.2
2022-10-13T08:14:35.530Z,10.3
2022-10-13T08:15:38.674Z,10.3
2022-10-13T08:16:41.548Z,10.3
2022-10-13T08:17:44.441Z,10.4
2022-10-13T08:18:47.281Z,10.4
2022-10-13T08:19:51.166Z,10.4
2022-10-13T08:22:00.701Z,10.4
2022-10-13T08:23:04.336Z,10.5
2022-10-13T08:24:07.506Z,10.6
2022-10-13T08:25:10.537Z,10.6
2022-10-13T08:26:13.128Z,10.6
2022-10-13T08:27:16.835Z,10.6
2022-10-13T08:28:20.347Z,10.6
2022-10-13T08:29:26.028Z,10.7
2022-10-13T08:30:29.882Z,10.7
2022-10-13T08:31:34.360Z,10.8
2022-10-13T08:32:37.483Z,10.8
2022-10-13T08:33:39.652Z,10.9
2022-10-13T08:34:42.256Z,10.9
2022-10-13T08:35:46.194Z,10.9
2022-10-13T08:36:50.352Z,11
2022-10-13T08:37:53.821Z,11.1
2022-10-13T08:38:57.596Z,11.1
2022-10-13T08:40:01.019Z,11.1
2022-10-13T08:41:03.797Z,11.2
2022-10-13T08:42:06.844Z,11.3
2022-10-13T08:43:09.717Z,11.3
2022-10-13T08:45:43.018Z,11.3
2022-10-13T08:46:46.877Z,11.3
2022-10-13T08:47:49.961Z,11.4
2022-10-13T08:48:52.855Z,11.4
2022-10-13T08:50:02.608Z,11.3
2022-10-13T08:51:05.878Z,11.3
2022-10-13T08:52:09.534Z,11.3
2022-10-13T08:53:11.853Z,11.3
2022-10-13T08:54:14.371Z,11.4
2022-10-13T08:55:17.997Z,11.4
2022-10-13T08:56:21.448Z,11.4
2022-10-13T08:57:25.238Z,11.4
2022-10-13T08:58:27.972Z,11.5
2022-10-13T08:59:30.849Z,11.5
2022-10-13T09:00:33.910Z,11.5
2022-10-13T09:01:37.758Z,11.6
2022-10-13T09:02:41.205Z,11.6
2022-10-13T09:03:43.743Z,11.6
2022-10-13T09:04:47.470Z,11.6
2022-10-13T09:05:50.900Z,11.7
2022-10-13T09:06:54.195Z,11.7
2022-10-13T09:07:58.598Z,11.7
2022-10-13T09:09:02.068Z,11.6
2022-10-13T09:10:05.329Z,11.7
2022-10-13T09:11:08.498Z,11.7
2022-10-13T09:12:11.381Z,11.7
2022-10-13T09:13:14.256Z,11.6
2022-10-13T09:14:17.061Z,11.6
2022-10-13T09:15:20.716Z,11.7
2022-10-13T09:16:24.251Z,11.7
2022-10-13T09:17:27.692Z,11.7
2022-10-13T09:18:31.118Z,11.7
2022-10-13T09:19:34.126Z,11.8
2022-10-13T09:20:37.504Z,11.8
2022-10-13T09:21:40.981Z,11.8
2022-10-13T09:22:43.812Z,11.9
2022-10-13T09:23:47.566Z,12
2022-10-13T09:24:50.698Z,12.1
2022-10-13T09:25:53.848Z,12.2
2022-10-13T09:26:56.361Z,12.3
2022-10-13T09:27:59.246Z,12.3
2022-10-13T09:29:02.005Z,12.4
2022-10-13T09:30:05.189Z,12.4
2022-10-13T09:31:15.432Z,12.6
2022-10-13T09:32:21.092Z,12.7
2022-10-13T09:33:24.569Z,12.8
2022-10-13T09:34:27.701Z,12.9
2022-10-13T09:35:31.402Z,12.9
2022-10-13T09:36:34.777Z,13
2022-10-13T09:37:37.956Z,13.1
2022-10-13T09:38:41.845Z,13.1
2022-10-13T09:39:46.005Z,13.2
2022-10-13T09:40:49.756Z,13.3
2022-10-13T09:41:53.121Z,13.3
2022-10-13T09:42:56.863Z,13.4
2022-10-13T09:43:59.932Z,13.4
2022-10-13T09:45:02.368Z,13.5
2022-10-13T09:46:06.378Z,13.5
2022-10-13T09:47:09.644Z,13.5
2022-10-13T09:48:12.883Z,13.6
2022-10-13T09:49:16.231Z,13.6
2022-10-13T09:50:19.066Z,13.6
2022-10-13T09:51:22.069Z,13.6
2022-10-13T09:52:25.889Z,13.7
2022-10-13T09:53:29.050Z,13.7
2022-10-13T09:54:32.581Z,13.8
2022-10-13T09:55:35.566Z,13.8
2022-10-13T09:56:38.409Z,13.9
2022-10-13T09:57:41.644Z,14
2022-10-13T09:59:49.547Z,14.1
2022-10-13T10:00:52.636Z,14.1
2022-10-13T10:01:56.073Z,14.1
2022-10-13T10:02:59.349Z,14.1
2022-10-13T10:04:02.582Z,14
2022-10-13T10:05:06.124Z,14
2022-10-13T10:07:11.468Z,14.1
2022-10-13T10:08:13.712Z,14.1
2022-10-13T10:09:16.297Z,14
2022-10-13T10:10:19.971Z,13.9
2022-10-13T10:11:24.003Z,13.9
2022-10-13T10:12:29.591Z,13.9
2022-10-13T10:13:33.564Z,13.8
2022-10-13T10:14:36.622Z,13.8
2022-10-13T10:15:39.404Z,13.8
2022-10-13T10:16:41.715Z,13.8
2022-10-13T10:17:43.974Z,13.9
2022-10-13T10:18:47.089Z,13.7
2022-10-13T10:19:50.715Z,13.7
2022-10-13T10:20:54.211Z,13.7
2022-10-13T10:21:56.780Z,13.6
2022-10-13T10:22:59.026Z,13.5
2022-10-13T10:24:02.573Z,13.6
2022-10-13T10:25:05.765Z,13.6
2022-10-13T10:26:08.568Z,13.6
2022-10-13T10:27:12.901Z,13.6
2022-10-13T10:28:16.207Z,13.7
2022-10-13T10:29:20.044Z,13.7
2022-10-13T10:30:22.370Z,13.6
2022-10-13T10:31:25.513Z,13.7
2022-10-13T10:32:29.246Z,13.7
2022-10-13T10:33:32.066Z,13.8
2022-10-13T10:34:34.867Z,13.8
2022-10-13T10:35:37.706Z,13.9
2022-10-13T10:36:41.157Z,13.9
2022-10-13T10:37:44.605Z,13.9
2022-10-13T10:38:47.698Z,14
2022-10-13T10:39:50.689Z,14.1
2022-10-13T10:40:54.064Z,14.2
2022-10-13T10:41:58.247Z,14.3
2022-10-13T10:43:02.066Z,14.3
2022-10-13T10:44:05.063Z,14.3
2022-10-13T10:45:08.516Z,14.4
2022-10-13T10:46:11.949Z,14.4
2022-10-13T10:47:14.468Z,14.4
2022-10-13T10:48:20.187Z,14.4
2022-10-13T10:49:23.576Z,14.5
2022-10-13T10:50:27.024Z,14.6
2022-10-13T10:51:30.136Z,14.7
2022-10-13T10:52:33.678Z,14.8
2022-10-13T10:53:36.959Z,14.8
2022-10-13T10:54:40.103Z,14.8
2022-10-13T10:55:49.310Z,14.8
2022-10-13T10:56:52.979Z,14.8
2022-10-13T10:57:56.166Z,14.7
2022-10-13T10:58:59.940Z,14.7
2022-10-13T11:00:03.662Z,14.8
2022-10-13T11:01:06.538Z,14.7
2022-10-13T11:02:09.538Z,14.7
2022-10-13T11:03:12.636Z,14.8
2022-10-13T11:04:15.467Z,14.8
2022-10-13T11:05:19.205Z,14.8
2022-10-13T11:06:21.731Z,15
2022-10-13T11:07:24.812Z,15.1
2022-10-13T11:08:27.880Z,15.3
2022-10-13T11:09:30.686Z,15.3
2022-10-13T11:10:33.854Z,15.3
2022-10-13T11:11:39.831Z,15.3
2022-10-13T11:12:43.189Z,15.3
2022-10-13T11:13:46.343Z,15.3
2022-10-13T11:14:50.213Z,15.3
2022-10-13T11:15:52.743Z,15.4
2022-10-13T11:16:55.797Z,15.4
2022-10-13T11:17:58.515Z,15.3
2022-10-13T11:19:01.859Z,15.3
2022-10-13T11:20:04.311Z,15.4
2022-10-13T11:21:07.761Z,15.4
2022-10-13T11:22:10.829Z,15.2
2022-10-13T11:23:13.001Z,15.2
2022-10-13T11:24:15.937Z,15.2
2022-10-13T11:25:19.365Z,15.3
2022-10-13T11:26:22.512Z,15.3
2022-10-13T11:27:25.303Z,15.3
2022-10-13T11:28:29.289Z,15.3
2022-10-13T11:29:32.563Z,15.4
2022-10-13T11:30:36.051Z,15.5
2022-10-13T11:31:39.416Z,15.6
2022-10-13T11:32:42.027Z,15.6
2022-10-13T11:33:45.194Z,15.7
2022-10-13T11:34:47.990Z,15.7
2022-10-13T11:35:50.238Z,15.8
2022-10-13T11:36:53.573Z,15.8
2022-10-13T11:38:18.422Z,15.7
2022-10-13T11:39:22.429Z,15.7
2022-10-13T11:40:25.587Z,15.7
2022-10-13T11:41:28.112Z,15.6
2022-10-13T11:42:31.734Z,15.7
2022-10-13T11:43:35.271Z,15.7
2022-10-13T11:44:38.266Z,15.6
2022-10-13T11:45:42.359Z,15.6
2022-10-13T11:46:45.854Z,15.5
2022-10-13T11:47:49.011Z,15.5
2022-10-13T11:48:52.289Z,15.6
2022-10-13T11:49:55.106Z,15.6
2022-10-13T11:50:57.915Z,15.7
2022-10-13T11:52:00.793Z,15.8
2022-10-13T11:53:04.146Z,15.9
2022-10-13T11:54:07.494Z,16.1
2022-10-13T11:55:10.521Z,16.2
2022-10-13T11:56:14.644Z,16.3
2022-10-13T11:57:17.720Z,16.4
2022-10-13T11:58:20.353Z,16.2
2022-10-13T11:59:23.737Z,16.2
2022-10-13T12:00:26.890Z,16.2
2022-10-13T12:01:30.653Z,16.3
2022-10-13T12:02:33.960Z,16.4
2022-10-13T12:03:37.397Z,16.3
2022-10-13T12:04:47.994Z,16.3
2022-10-13T12:05:51.652Z,16.3
2022-10-13T12:06:54.908Z,16.4
2022-10-13T12:07:57.427Z,16.4
2022-10-13T12:09:00.529Z,16.5
2022-10-13T12:10:03.610Z,16.5
2022-10-13T12:11:07.109Z,16.5
2022-10-13T12:12:09.009Z,16.4
2022-10-13T12:13:11.840Z,16.3
2022-10-13T12:14:15.104Z,16.4
2022-10-13T12:15:18.286Z,16.4
2022-10-13T12:16:21.889Z,16.4
2022-10-13T12:17:28.570Z,16.5
2022-10-13T12:18:31.808Z,16.5
2022-10-13T12:19:34.338Z,16.5
2022-10-13T12:20:37.413Z,16.4
2022-10-13T12:21:40.134Z,16.4
2022-10-13T12:22:43.320Z,16.5
2022-10-13T12:23:46.734Z,16.4
2022-10-13T12:24:49.820Z,16.4
2022-10-13T12:25:53.279Z,16.5
2022-10-13T12:26:55.982Z,16.5
2022-10-13T12:27:59.715Z,16.6
2022-10-13T12:29:02.962Z,16.6
2022-10-13T12:30:06.486Z,16.6
2022-10-13T12:31:09.935Z,16.7
2022-10-13T12:32:13.013Z,16.7
2022-10-13T12:33:16.686Z,16.6
2022-10-13T12:34:19.935Z,16.6
2022-10-13T12:35:23.113Z,16.5
2022-10-13T12:36:26.101Z,16.5
2022-10-13T12:37:28.978Z,16.5
2022-10-13T12:38:32.333Z,16.5
2022-10-13T12:39:35.196Z,16.5
2022-10-13T12:40:37.985Z,16.4
2022-10-13T12:41:41.781Z,16.4
2022-10-13T12:42:44.671Z,16.4
2022-10-13T12:43:47.820Z,16.5
2022-10-13T12:44:50.534Z,16.5
2022-10-13T12:45:53.428Z,16.5
2022-10-13T12:46:56.935Z,16.5
2022-10-13T12:48:00.190Z,16.5
2022-10-13T12:49:04.105Z,16.5
2022-10-13T12:50:07.519Z,16.5
2022-10-13T12:51:10.883Z,16.5
2022-10-13T12:52:13.698Z,16.6
2022-10-13T12:53:17.485Z,16.6
2022-10-13T12:54:20.983Z,16.6
2022-10-13T12:55:24.056Z,16.6
2022-10-13T12:56:27.405Z,16.7
2022-10-13T12:57:30.476Z,16.7
2022-10-13T12:58:33.633Z,16.7
2022-10-13T12:59:36.593Z,16.8
2022-10-13T13:00:40.070Z,16.8
2022-10-13T13:01:43.346Z,16.8
2022-10-13T13:02:46.540Z,16.8
2022-10-13T13:03:50.147Z,16.7
2022-10-13T13:04:54.254Z,16.8
2022-10-13T13:06:02.448Z,16.8
2022-10-13T13:07:05.821Z,16.8
2022-10-13T13:08:08.894Z,16.8
2022-10-13T13:09:12.315Z,16.8
2022-10-13T13:10:15.216Z,16.8
2022-10-13T13:11:18.944Z,16.8
2022-10-13T13:12:23.815Z,16.8
2022-10-13T13:13:26.982Z,16.7
2022-10-13T13:14:30.715Z,16.8
2022-10-13T13:15:34.059Z,16.8
2022-10-13T13:16:37.142Z,16.8
2022-10-13T13:18:00.740Z,16.8
2022-10-13T13:19:04.267Z,16.8
2022-10-13T13:20:07.814Z,16.7
2022-10-13T13:21:11.269Z,16.7
2022-10-13T13:22:14.628Z,16.8
2022-10-13T13:23:16.859Z,16.8
2022-10-13T13:24:41.628Z,16.8
2022-10-13T13:25:44.614Z,16.9
2022-10-13T13:26:48.354Z,16.9
2022-10-13T13:27:51.158Z,16.9
2022-10-13T13:28:54.788Z,16.9
2022-10-13T13:29:58.322Z,16.9
2022-10-13T13:31:01.818Z,17
2022-10-13T13:32:04.653Z,17
2022-10-13T13:33:08.052Z,17.1
2022-10-13T13:34:11.504Z,17
2022-10-13T13:35:14.717Z,17
2022-10-13T13:36:17.688Z,17
2022-10-13T13:37:22.360Z,16.9
2022-10-13T13:38:25.876Z,16.9
2022-10-13T13:39:29.027Z,16.9
2022-10-13T13:40:32.516Z,16.9
2022-10-13T13:41:35.466Z,17
2022-10-13T13:42:39.195Z,16.9
2022-10-13T13:43:42.439Z,16.8
2022-10-13T13:44:45.621Z,16.7
2022-10-13T13:45:49.345Z,16.7
2022-10-13T13:46:52.219Z,16.7
2022-10-13T13:48:02.204Z,16.6
2022-10-13T13:49:05.200Z,16.6
2022-10-13T13:50:09.395Z,16.6
2022-10-13T13:51:13.213Z,16.7
2022-10-13T13:52:16.106Z,16.8
2022-10-13T13:53:18.908Z,16.7
2022-10-13T13:54:22.254Z,16.8
2022-10-13T13:55:25.369Z,16.8
2022-10-13T13:56:28.175Z,16.9
2022-10-13T13:57:31.526Z,16.8
2022-10-13T13:58:35.191Z,16.8
2022-10-13T13:59:38.334Z,16.8
2022-10-13T14:00:41.735Z,16.8
2022-10-13T14:01:44.991Z,16.6
2022-10-13T14:02:48.571Z,16.6
2022-10-13T14:03:50.535Z,16.6
2022-10-13T14:04:53.994Z,16.6
2022-10-13T14:05:57.732Z,16.6
2022-10-13T14:07:01.216Z,16.6
2022-10-13T14:08:04.403Z,16.6
2022-10-13T14:09:07.662Z,16.6
2022-10-13T14:10:10.440Z,16.6
2022-10-13T14:11:13.877Z,16.6
2022-10-13T14:12:16.469Z,16.6
2022-10-13T14:13:19.732Z,16.6
2022-10-13T14:14:23.191Z,16.5
2022-10-13T14:15:31.002Z,16.5
2022-10-13T14:16:34.091Z,16.4
2022-10-13T14:17:37.432Z,16.4
2022-10-13T14:18:40.580Z,16.4
2022-10-13T14:19:44.309Z,16.3
2022-10-13T14:20:47.211Z,16.3
2022-10-13T14:21:50.496Z,16.3
2022-10-13T14:22:54.244Z,16.3
2022-10-13T14:23:56.767Z,16.4
2022-10-13T14:24:59.843Z,16.4
2022-10-13T14:26:02.702Z,16.3
2022-10-13T14:27:05.785Z,16.3
2022-10-13T14:28:08.970Z,16.4
2022-10-13T14:29:12.490Z,16.3
2022-10-13T14:30:15.306Z,16.3
2022-10-13T14:31:18.733Z,16.3